aviador You're here:

GCTS Decoded Metar

TENERIFE in SPAIN
Report Time2017-09-25 16:30:00
UTC Time2017-09-25 17:02:22
Flight Rules vfr VFR
Wind120° at 05 kt
W.Decomp.*RWY 08: 3.5 kt HW 3.6 kt RCW
W.Rank120° ranks 13
Current wind is below 120° avg. (8.1)
Visibility9999 m
Phenomena:N/A
Clouds:Scattered 050 Hf
Expected CloudBase > 3,200 ft AGL from Temp-Dew spread
CeilingNone
Temp27°C (ISA +12)
Dew Point19°C (62% RH)
Heat Index28.2°C
QNH1020 hPa
Density Alt1,729 ft
Elevation236 ft
Report Wrong Elevation
Raw Report
GCTS 251630Z 12005KT 060V160 9999 SCT050 27/19 Q1020 NOSIG=

Extra information for GCTS:More info

Metar Taf Metar & Taf Last 4 Metars F.Rules Stats Wind Profile Meteogram Temp Stats Airport Information Weather charts Add Link Nearby VenuesMetar ALERT Operation Metar Decoded Social comments